createdAt,value
2022-10-13T00:01:32.956Z,10.50
2022-10-13T00:04:01.020Z,10.50
2022-10-13T00:06:29.212Z,10.50
2022-10-13T00:08:57.502Z,10.50
2022-10-13T00:11:30.184Z,10.50
2022-10-13T00:14:02.017Z,10.60
2022-10-13T00:16:32.327Z,10.50
2022-10-13T00:19:00.581Z,10.50
2022-10-13T00:21:29.908Z,10.50
2022-10-13T00:23:58.541Z,10.50
2022-10-13T00:26:28.281Z,10.40
2022-10-13T00:28:57.655Z,10.40
2022-10-13T00:31:28.910Z,10.40
2022-10-13T00:33:58.958Z,10.40
2022-10-13T00:36:27.291Z,10.40
2022-10-13T00:38:56.145Z,10.40
2022-10-13T00:41:24.371Z,10.40
2022-10-13T00:43:59.914Z,10.40
2022-10-13T00:46:31.225Z,10.40
2022-10-13T00:49:05.987Z,10.40
2022-10-13T00:51:40.960Z,10.40
2022-10-13T00:54:14.696Z,10.40
2022-10-13T00:56:43.247Z,10.40
2022-10-13T00:59:23.081Z,10.40
2022-10-13T01:01:52.330Z,10.30
2022-10-13T01:04:24.389Z,10.20
2022-10-13T01:06:53.801Z,10.20
2022-10-13T01:09:21.939Z,10.20
2022-10-13T01:12:06.821Z,10.20
2022-10-13T01:14:45.785Z,10.10
2022-10-13T01:17:32.091Z,10.10
2022-10-13T01:20:38.461Z,10.10
2022-10-13T01:23:27.058Z,10.00
2022-10-13T01:26:24.706Z,10.00
2022-10-13T01:29:21.607Z,9.90
2022-10-13T01:32:03.376Z,9.90
2022-10-13T01:34:40.703Z,9.80
2022-10-13T01:37:21.127Z,9.70
2022-10-13T01:40:00.632Z,9.70
2022-10-13T01:42:37.158Z,9.70
2022-10-13T01:45:12.905Z,9.70
2022-10-13T01:47:44.837Z,9.60
2022-10-13T01:50:17.324Z,9.50
2022-10-13T01:52:47.956Z,9.50
2022-10-13T01:55:16.058Z,9.50
2022-10-13T01:57:46.332Z,9.50
2022-10-13T02:00:18.823Z,9.50
2022-10-13T02:03:06.462Z,9.40
2022-10-13T02:05:49.077Z,9.30
2022-10-13T02:08:27.324Z,9.30
2022-10-13T02:11:11.971Z,9.30
2022-10-13T02:13:47.873Z,9.20
2022-10-13T02:16:23.976Z,9.20
2022-10-13T02:18:54.347Z,9.10
2022-10-13T02:21:22.880Z,9.10
2022-10-13T02:23:52.597Z,9.00
2022-10-13T02:26:22.861Z,9.00
2022-10-13T02:28:59.123Z,9.00
2022-10-13T02:31:27.347Z,9.00
2022-10-13T02:33:56.919Z,9.10
2022-10-13T02:36:25.629Z,9.10
2022-10-13T02:38:53.811Z,9.00
2022-10-13T02:41:21.966Z,9.00
2022-10-13T02:43:52.468Z,9.10
2022-10-13T02:46:23.746Z,9.10
2022-10-13T02:48:51.914Z,9.10
2022-10-13T02:51:21.559Z,9.10
2022-10-13T02:53:49.733Z,9.10
2022-10-13T02:56:18.855Z,9.10
2022-10-13T02:58:46.986Z,9.10
2022-10-13T03:01:16.676Z,9.20
2022-10-13T03:03:44.929Z,9.20
2022-10-13T03:06:13.067Z,9.20
2022-10-13T03:08:42.691Z,9.30
2022-10-13T03:11:10.873Z,9.30
2022-10-13T03:13:39.183Z,9.30
2022-10-13T03:16:08.290Z,9.30
2022-10-13T03:18:36.480Z,9.30
2022-10-13T03:21:07.395Z,9.30
2022-10-13T03:23:38.418Z,9.40
2022-10-13T03:26:08.248Z,9.40
2022-10-13T03:28:36.572Z,9.50
2022-10-13T03:31:07.859Z,9.40
2022-10-13T03:33:36.219Z,9.40
2022-10-13T03:36:07.466Z,9.40
2022-10-13T03:38:39.281Z,9.40
2022-10-13T03:41:14.284Z,9.40
2022-10-13T03:43:44.102Z,9.40
2022-10-13T03:46:18.349Z,9.40
2022-10-13T03:48:48.337Z,9.40
2022-10-13T03:51:19.897Z,9.40
2022-10-13T03:53:52.121Z,9.40
2022-10-13T03:56:24.986Z,9.40
2022-10-13T03:58:56.366Z,9.40
2022-10-13T04:01:30.169Z,9.40
2022-10-13T04:04:02.139Z,9.40
2022-10-13T04:06:31.542Z,9.40
2022-10-13T04:09:00.070Z,9.40
2022-10-13T04:11:30.456Z,9.40
2022-10-13T04:13:59.347Z,9.40
2022-10-13T04:16:30.584Z,9.40
2022-10-13T04:19:04.367Z,9.50
2022-10-13T04:21:35.623Z,9.50
2022-10-13T04:24:05.311Z,9.50
2022-10-13T04:26:37.027Z,9.50
2022-10-13T04:29:13.385Z,9.50
2022-10-13T04:31:43.813Z,9.50
2022-10-13T04:34:12.227Z,9.50
2022-10-13T04:36:40.732Z,9.50
2022-10-13T04:39:09.017Z,9.50
2022-10-13T04:41:38.527Z,9.50
2022-10-13T04:44:06.766Z,9.50
2022-10-13T04:46:34.833Z,9.50
2022-10-13T04:49:02.940Z,9.50
2022-10-13T04:51:34.006Z,9.40
2022-10-13T04:54:05.473Z,9.40
2022-10-13T04:56:34.526Z,9.40
2022-10-13T04:59:05.859Z,9.40
2022-10-13T05:01:35.887Z,9.40
2022-10-13T05:04:07.840Z,9.40
2022-10-13T05:07:05.350Z,9.40
2022-10-13T05:09:29.834Z,9.30
2022-10-13T05:11:58.443Z,9.30
2022-10-13T05:14:27.974Z,9.40
2022-10-13T05:16:56.027Z,9.40
2022-10-13T05:19:24.213Z,9.40
2022-10-13T05:21:53.293Z,9.30
2022-10-13T05:24:30.868Z,9.30
2022-10-13T05:26:59.181Z,9.30
2022-10-13T05:29:28.944Z,9.30
2022-10-13T05:31:57.234Z,9.30
2022-10-13T05:34:25.905Z,9.40
2022-10-13T05:36:56.168Z,9.40
2022-10-13T05:39:24.368Z,9.40
2022-10-13T05:41:52.553Z,9.40
2022-10-13T05:44:22.879Z,9.40
2022-10-13T05:46:58.501Z,9.40
2022-10-13T05:49:26.747Z,9.40
2022-10-13T05:51:59.623Z,9.40
2022-10-13T05:54:31.874Z,9.40
2022-10-13T05:57:07.616Z,9.50
2022-10-13T05:59:42.713Z,9.50
2022-10-13T06:02:17.100Z,9.50
2022-10-13T06:04:51.404Z,9.50
2022-10-13T06:07:20.921Z,9.60
2022-10-13T06:09:49.963Z,9.60
2022-10-13T06:12:18.385Z,9.60
2022-10-13T06:14:47.233Z,9.60
2022-10-13T06:17:18.202Z,9.70
2022-10-13T06:19:46.373Z,9.70
2022-10-13T06:22:14.615Z,9.80
2022-10-13T06:24:43.335Z,9.80
2022-10-13T06:27:14.189Z,9.80
2022-10-13T06:29:42.402Z,9.80
2022-10-13T06:32:10.529Z,9.90
2022-10-13T06:34:40.087Z,9.90
2022-10-13T06:37:08.260Z,9.90
2022-10-13T06:39:36.612Z,9.90
2022-10-13T06:42:05.561Z,9.90
2022-10-13T06:44:39.143Z,10.00
2022-10-13T06:47:07.786Z,10.00
2022-10-13T06:49:36.104Z,10.00
2022-10-13T06:52:06.526Z,10.00
2022-10-13T06:54:35.829Z,10.00
2022-10-13T06:57:06.971Z,10.00
2022-10-13T06:59:35.173Z,10.10
2022-10-13T07:02:03.317Z,10.00
2022-10-13T07:04:31.572Z,10.00
2022-10-13T07:07:00.304Z,10.10
2022-10-13T07:09:30.414Z,10.20
2022-10-13T07:11:58.530Z,10.30
2022-10-13T07:14:26.842Z,10.30
2022-10-13T07:16:55.024Z,10.40
2022-10-13T07:19:23.358Z,10.40
2022-10-13T07:21:51.742Z,10.50
2022-10-13T07:24:21.380Z,10.60
2022-10-13T07:26:50.929Z,10.60
2022-10-13T07:29:19.357Z,10.70
2022-10-13T07:31:47.637Z,10.80
2022-10-13T07:34:16.861Z,10.80
2022-10-13T07:36:45.290Z,10.80
2022-10-13T07:39:13.562Z,10.80
2022-10-13T07:41:42.117Z,10.80
2022-10-13T07:44:11.583Z,10.90
2022-10-13T07:46:40.142Z,11.00
2022-10-13T07:49:11.134Z,11.10
2022-10-13T07:51:42.018Z,11.20
2022-10-13T07:54:10.239Z,11.20
2022-10-13T07:56:38.810Z,11.20
2022-10-13T07:59:09.051Z,11.40
2022-10-13T08:01:38.573Z,11.40
2022-10-13T08:04:06.928Z,11.40
2022-10-13T08:06:35.150Z,11.50
2022-10-13T08:09:04.494Z,11.50
2022-10-13T08:11:32.944Z,11.50
2022-10-13T08:14:01.700Z,11.60
2022-10-13T08:16:30.602Z,11.60
2022-10-13T08:19:01.320Z,11.60
2022-10-13T08:21:56.812Z,11.60
2022-10-13T08:24:19.479Z,11.60
2022-10-13T08:26:48.543Z,11.70
2022-10-13T08:29:21.976Z,11.70
2022-10-13T08:31:51.684Z,11.90
2022-10-13T08:34:22.251Z,11.90
2022-10-13T08:36:52.969Z,12.00
2022-10-13T08:39:22.026Z,12.00
2022-10-13T08:41:51.139Z,12.00
2022-10-13T08:45:10.947Z,12.00
2022-10-13T08:47:28.250Z,12.00
2022-10-13T08:50:02.274Z,12.10
2022-10-13T08:52:46.753Z,12.10
2022-10-13T08:55:26.028Z,12.10
2022-10-13T08:57:54.669Z,12.20
2022-10-13T09:00:27.666Z,12.20
2022-10-13T09:03:09.601Z,12.30
2022-10-13T09:05:53.518Z,12.30
2022-10-13T09:08:23.694Z,12.30
2022-10-13T09:10:53.169Z,12.50
2022-10-13T09:13:23.696Z,12.60
2022-10-13T09:15:53.179Z,12.70
2022-10-13T09:18:33.890Z,12.80
2022-10-13T09:21:21.822Z,12.90
2022-10-13T09:23:54.018Z,13.00
2022-10-13T09:26:25.794Z,13.20
2022-10-13T09:28:54.497Z,13.20
2022-10-13T09:31:27.963Z,13.30
2022-10-13T09:34:02.554Z,13.50
2022-10-13T09:36:32.223Z,13.60
2022-10-13T09:39:13.004Z,13.70
2022-10-13T09:41:43.531Z,13.80
2022-10-13T09:44:16.717Z,13.90
2022-10-13T09:46:53.268Z,13.90
2022-10-13T09:49:44.609Z,13.90
2022-10-13T09:52:25.090Z,13.90
2022-10-13T09:54:57.411Z,13.80
2022-10-13T09:57:41.773Z,13.70
2022-10-13T10:00:21.359Z,13.70
2022-10-13T10:02:57.119Z,13.60
2022-10-13T10:05:29.310Z,13.60
2022-10-13T10:08:12.235Z,13.60
2022-10-13T10:10:42.664Z,13.70
2022-10-13T10:13:13.596Z,13.70
2022-10-13T10:15:56.947Z,13.60
2022-10-13T10:18:39.634Z,13.60
2022-10-13T10:21:23.326Z,13.60
2022-10-13T10:24:00.886Z,13.60
2022-10-13T10:26:46.943Z,13.60
2022-10-13T10:29:44.861Z,13.60
2022-10-13T10:32:29.450Z,13.50
2022-10-13T10:35:10.889Z,13.40
2022-10-13T10:38:03.637Z,13.40
2022-10-13T10:40:48.838Z,13.50
2022-10-13T10:43:45.659Z,13.50
2022-10-13T10:46:20.879Z,13.60
2022-10-13T10:48:53.868Z,13.60
2022-10-13T10:51:29.152Z,13.60
2022-10-13T10:54:18.096Z,13.70
2022-10-13T10:56:54.550Z,13.80
2022-10-13T10:59:42.956Z,13.80
2022-10-13T11:02:37.745Z,13.80
2022-10-13T11:05:06.864Z,13.90
2022-10-13T11:07:58.629Z,14.10
2022-10-13T11:10:27.382Z,14.20
2022-10-13T11:13:20.902Z,14.50
2022-10-13T11:15:49.067Z,14.70
2022-10-13T11:19:08.685Z,14.80
2022-10-13T11:22:12.891Z,15.00
2022-10-13T11:25:00.945Z,15.00
2022-10-13T11:27:45.373Z,15.10
2022-10-13T11:30:49.999Z,15.10
2022-10-13T11:33:56.573Z,15.30
2022-10-13T11:36:52.668Z,15.40
2022-10-13T11:40:04.684Z,15.60
2022-10-13T11:43:05.155Z,15.80
2022-10-13T11:46:16.018Z,15.90
2022-10-13T11:49:21.315Z,16.10
2022-10-13T11:52:26.620Z,16.20
2022-10-13T11:55:03.774Z,16.10
2022-10-13T11:57:32.845Z,16.00
2022-10-13T12:00:06.309Z,15.80
2022-10-13T12:02:54.559Z,15.80
2022-10-13T12:05:26.059Z,15.80
2022-10-13T12:07:57.948Z,15.80
2022-10-13T12:10:33.609Z,15.70
2022-10-13T12:13:02.833Z,15.70
2022-10-13T12:15:36.283Z,15.70
2022-10-13T12:18:23.451Z,15.80
2022-10-13T12:20:56.612Z,15.90
2022-10-13T12:23:25.123Z,15.90
2022-10-13T12:25:58.312Z,15.80
2022-10-13T12:28:30.763Z,15.80
2022-10-13T12:31:01.063Z,15.80
2022-10-13T12:33:35.757Z,15.90
2022-10-13T12:36:17.722Z,15.90
2022-10-13T12:38:51.655Z,15.80
2022-10-13T12:41:26.623Z,15.80
2022-10-13T12:43:56.226Z,15.80
2022-10-13T12:46:41.052Z,15.80
2022-10-13T12:49:16.616Z,15.80
2022-10-13T12:51:49.279Z,15.80
2022-10-13T12:54:25.364Z,15.80
2022-10-13T12:56:58.634Z,15.90
2022-10-13T12:59:29.967Z,15.90
2022-10-13T13:02:01.719Z,15.90
2022-10-13T13:04:42.087Z,15.90
2022-10-13T13:07:32.494Z,15.90
2022-10-13T13:10:03.547Z,15.90
2022-10-13T13:12:32.623Z,16.00
2022-10-13T13:15:33.879Z,16.00
2022-10-13T13:18:31.526Z,16.10
2022-10-13T13:21:01.934Z,16.00
2022-10-13T13:23:34.273Z,15.90
2022-10-13T13:26:13.127Z,15.90
2022-10-13T13:28:47.323Z,15.90
2022-10-13T13:31:18.080Z,15.90
2022-10-13T13:33:47.219Z,15.80
2022-10-13T13:36:19.876Z,15.90
2022-10-13T13:38:48.743Z,16.00
2022-10-13T13:41:19.729Z,16.00
2022-10-13T13:43:48.096Z,16.00
2022-10-13T13:46:20.350Z,15.90
2022-10-13T13:48:48.644Z,15.90
2022-10-13T13:51:18.545Z,15.90
2022-10-13T13:53:47.516Z,15.80
2022-10-13T13:56:19.150Z,15.80
2022-10-13T13:58:47.962Z,15.70
2022-10-13T14:01:16.355Z,15.60
2022-10-13T14:03:45.194Z,15.60
2022-10-13T14:06:22.888Z,15.60
2022-10-13T14:08:51.745Z,15.60
2022-10-13T14:11:20.096Z,15.50
2022-10-13T14:13:48.304Z,15.50
2022-10-13T14:16:25.360Z,15.50
2022-10-13T14:18:55.557Z,15.50
2022-10-13T14:21:27.217Z,15.50
2022-10-13T14:23:58.652Z,15.50
2022-10-13T14:26:26.847Z,15.50
2022-10-13T14:28:54.980Z,15.50
2022-10-13T14:31:23.113Z,15.50
2022-10-13T14:33:54.282Z,15.50
2022-10-13T14:36:23.408Z,15.50
2022-10-13T14:38:54.136Z,15.50
2022-10-13T14:41:22.731Z,15.50
2022-10-13T14:43:54.888Z,15.40
2022-10-13T14:46:24.021Z,15.50
2022-10-13T14:48:52.273Z,15.50
2022-10-13T14:51:20.388Z,15.50
2022-10-13T14:53:48.564Z,15.50
2022-10-13T14:56:21.628Z,15.50
2022-10-13T14:58:59.067Z,15.50
2022-10-13T15:01:33.359Z,15.50
2022-10-13T15:04:02.064Z,15.50
2022-10-13T15:06:32.643Z,15.50
2022-10-13T15:09:01.246Z,15.50
2022-10-13T15:11:31.077Z,15.50
2022-10-13T15:14:01.202Z,15.50
2022-10-13T15:16:33.314Z,15.60
2022-10-13T15:19:01.531Z,15.50
2022-10-13T15:21:29.696Z,15.50
2022-10-13T15:23:58.056Z,15.40
2022-10-13T15:26:26.249Z,15.50
2022-10-13T15:28:55.722Z,15.40
2022-10-13T15:31:24.930Z,15.40
2022-10-13T15:33:55.210Z,15.40
2022-10-13T15:36:25.586Z,15.40
2022-10-13T15:38:53.874Z,15.40
2022-10-13T15:41:23.592Z,15.40
2022-10-13T15:43:52.111Z,15.40
2022-10-13T15:46:26.182Z,15.40
2022-10-13T15:48:55.611Z,15.30
2022-10-13T15:51:26.750Z,15.40
2022-10-13T15:53:55.787Z,15.40
2022-10-13T15:56:24.046Z,15.40
2022-10-13T15:58:52.151Z,15.30
2022-10-13T16:01:21.695Z,15.30
2022-10-13T16:03:54.397Z,15.30
2022-10-13T16:06:25.618Z,15.30
2022-10-13T16:08:54.693Z,15.20
2022-10-13T16:11:24.211Z,15.20
2022-10-13T16:13:53.485Z,15.30
2022-10-13T16:16:23.222Z,15.30
2022-10-13T16:18:51.834Z,15.20
2022-10-13T16:21:23.176Z,15.20
2022-10-13T16:23:51.414Z,15.10
2022-10-13T16:26:20.228Z,15.10
2022-10-13T16:28:49.181Z,15.10
2022-10-13T16:31:18.290Z,15.10
2022-10-13T16:33:49.995Z,15.10
2022-10-13T16:36:20.823Z,15.10
2022-10-13T16:38:55.592Z,15.00
2022-10-13T16:41:24.719Z,15.00
2022-10-13T16:43:53.017Z,15.10
2022-10-13T16:46:22.313Z,15.00
2022-10-13T16:48:51.994Z,15.00
2022-10-13T16:51:22.323Z,15.00
2022-10-13T16:53:52.949Z,15.00
2022-10-13T16:56:22.620Z,15.00
2022-10-13T16:58:52.017Z,15.00
2022-10-13T17:01:21.110Z,15.00
2022-10-13T17:03:52.655Z,14.90
2022-10-13T17:06:23.480Z,14.90
2022-10-13T17:08:56.368Z,14.90
2022-10-13T17:11:27.934Z,14.90
2022-10-13T17:14:00.700Z,14.90
2022-10-13T17:16:32.153Z,14.90
2022-10-13T17:19:01.884Z,14.90
2022-10-13T17:21:37.803Z,14.90
2022-10-13T17:24:08.844Z,14.90
2022-10-13T17:26:37.275Z,14.90
2022-10-13T17:29:05.776Z,14.80
2022-10-13T17:31:33.972Z,14.90
2022-10-13T17:34:03.492Z,14.80
2022-10-13T17:36:33.959Z,14.80
2022-10-13T17:39:11.901Z,14.70
2022-10-13T17:41:41.297Z,14.70
2022-10-13T17:44:10.366Z,14.70
2022-10-13T17:46:39.795Z,14.70
2022-10-13T17:49:13.219Z,14.60
2022-10-13T17:51:42.554Z,14.60
2022-10-13T17:54:16.068Z,14.50
2022-10-13T17:56:45.425Z,14.50
2022-10-13T17:59:14.299Z,14.50
2022-10-13T18:01:43.506Z,14.40
2022-10-13T18:04:15.202Z,14.50
2022-10-13T18:06:44.872Z,14.40
2022-10-13T18:09:18.161Z,14.40
2022-10-13T18:11:51.010Z,14.30
2022-10-13T18:14:20.199Z,14.30
2022-10-13T18:16:50.860Z,14.20
2022-10-13T18:19:21.257Z,14.20
2022-10-13T18:21:50.567Z,14.20
2022-10-13T18:24:18.793Z,14.10
2022-10-13T18:26:47.310Z,14.10
2022-10-13T18:29:15.885Z,14.10
2022-10-13T18:31:44.602Z,14.10
2022-10-13T18:34:16.912Z,14.10
2022-10-13T18:36:49.138Z,14.10
2022-10-13T18:39:20.065Z,14.10
2022-10-13T18:41:50.217Z,14.10
2022-10-13T18:44:18.790Z,14.10
2022-10-13T18:46:50.940Z,14.10
2022-10-13T18:49:23.028Z,14.00
2022-10-13T18:51:53.112Z,14.00
2022-10-13T18:54:21.415Z,14.00
2022-10-13T18:56:49.764Z,14.00
2022-10-13T18:59:18.015Z,14.00
2022-10-13T19:01:46.352Z,14.00
2022-10-13T19:04:16.771Z,14.00
2022-10-13T19:06:46.362Z,14.00
2022-10-13T19:09:18.959Z,14.00
2022-10-13T19:11:47.168Z,14.00
2022-10-13T19:14:20.691Z,14.00
2022-10-13T19:16:49.558Z,14.00
2022-10-13T19:19:17.719Z,13.90
2022-10-13T19:21:45.914Z,13.90
2022-10-13T19:24:15.930Z,14.00
2022-10-13T19:26:44.242Z,13.90
2022-10-13T19:29:16.071Z,13.90
2022-10-13T19:31:44.946Z,13.90
2022-10-13T19:34:14.542Z,13.90
2022-10-13T19:36:45.354Z,13.90
2022-10-13T19:39:19.865Z,13.90
2022-10-13T19:41:50.666Z,13.90
2022-10-13T19:44:21.043Z,13.90
2022-10-13T19:46:50.274Z,13.90
2022-10-13T19:49:22.035Z,13.90
2022-10-13T19:51:53.793Z,13.90
2022-10-13T19:54:24.186Z,13.90
2022-10-13T19:56:53.719Z,13.90
2022-10-13T19:59:22.087Z,13.90
2022-10-13T20:01:50.408Z,13.90
2022-10-13T20:04:20.374Z,13.90
2022-10-13T20:06:49.264Z,13.80
2022-10-13T20:09:18.311Z,13.80
2022-10-13T20:11:49.764Z,13.80
2022-10-13T20:14:18.845Z,13.80
2022-10-13T20:16:47.329Z,13.80
2022-10-13T20:19:19.338Z,13.80
2022-10-13T20:21:51.535Z,13.80
2022-10-13T20:24:21.546Z,13.80
2022-10-13T20:26:51.324Z,13.80
2022-10-13T20:29:24.305Z,13.80
2022-10-13T20:31:52.538Z,13.80
2022-10-13T20:34:20.635Z,13.80
2022-10-13T20:36:51.852Z,13.70
2022-10-13T20:39:20.483Z,13.70
2022-10-13T20:41:50.067Z,13.70
2022-10-13T20:44:18.685Z,13.70
2022-10-13T20:46:46.772Z,13.70
2022-10-13T20:49:14.970Z,13.70
2022-10-13T20:51:44.772Z,13.70
2022-10-13T20:54:15.213Z,13.70
2022-10-13T20:56:44.378Z,13.70
2022-10-13T20:59:15.520Z,13.70
2022-10-13T21:01:43.963Z,13.70
2022-10-13T21:04:12.194Z,13.60
2022-10-13T21:06:41.977Z,13.60
2022-10-13T21:09:11.052Z,13.60
2022-10-13T21:11:41.639Z,13.60
2022-10-13T21:14:10.364Z,13.60
2022-10-13T21:16:40.625Z,13.60
2022-10-13T21:19:12.810Z,13.60
2022-10-13T21:21:41.366Z,13.60
2022-10-13T21:24:11.363Z,13.60
2022-10-13T21:26:42.161Z,13.60
2022-10-13T21:29:14.927Z,13.60
2022-10-13T21:31:44.489Z,13.60
2022-10-13T21:34:13.941Z,13.60
2022-10-13T21:36:44.434Z,13.50
2022-10-13T21:39:15.125Z,13.50
2022-10-13T21:41:43.586Z,13.50
2022-10-13T21:44:14.227Z,13.50
2022-10-13T21:46:44.176Z,13.60
2022-10-13T21:49:12.374Z,13.50
2022-10-13T21:51:41.339Z,13.50
2022-10-13T21:54:12.585Z,13.50
2022-10-13T21:56:42.099Z,13.50
2022-10-13T21:59:12.911Z,13.50
2022-10-13T22:01:41.627Z,13.50
2022-10-13T22:04:15.057Z,13.60
2022-10-13T22:06:44.526Z,13.60
2022-10-13T22:09:13.458Z,13.60
2022-10-13T22:11:42.378Z,13.60
2022-10-13T22:14:13.859Z,13.60
2022-10-13T22:16:44.933Z,13.60
2022-10-13T22:19:16.732Z,13.50
2022-10-13T22:21:47.414Z,13.50
2022-10-13T22:24:19.054Z,13.60
2022-10-13T22:26:50.135Z,13.50
2022-10-13T22:29:21.695Z,13.50
2022-10-13T22:31:50.599Z,13.50
2022-10-13T22:34:20.167Z,13.60
2022-10-13T22:36:48.499Z,13.60
2022-10-13T22:39:17.104Z,13.60
2022-10-13T22:41:46.108Z,13.50
2022-10-13T22:44:14.858Z,13.50
2022-10-13T22:46:43.340Z,13.60
2022-10-13T22:49:14.734Z,13.50
2022-10-13T22:51:44.354Z,13.50
2022-10-13T22:54:13.785Z,13.50
2022-10-13T22:56:43.088Z,13.50
2022-10-13T22:59:13.854Z,13.50
2022-10-13T23:01:42.229Z,13.50
2022-10-13T23:04:10.601Z,13.50
2022-10-13T23:06:39.179Z,13.50
2022-10-13T23:09:13.243Z,13.50
2022-10-13T23:11:41.948Z,13.50
2022-10-13T23:14:12.373Z,13.50
2022-10-13T23:16:40.718Z,13.50
2022-10-13T23:19:08.849Z,13.50
2022-10-13T23:21:37.135Z,13.50
2022-10-13T23:24:08.615Z,13.50
2022-10-13T23:26:37.018Z,13.50
2022-10-13T23:29:05.754Z,13.50
2022-10-13T23:31:34.046Z,13.50
2022-10-13T23:34:02.187Z,13.50
2022-10-13T23:36:32.634Z,13.50
2022-10-13T23:39:03.765Z,13.40
2022-10-13T23:41:34.166Z,13.50
2022-10-13T23:44:02.369Z,13.50
2022-10-13T23:46:30.736Z,13.50
2022-10-13T23:48:58.995Z,13.50
2022-10-13T23:51:27.224Z,13.50
2022-10-13T23:53:56.466Z,13.50
2022-10-13T23:56:25.226Z,13.40
2022-10-13T23:58:54.963Z,13.50
